Terminal Aerodrome Forecast
Issued by NWS

Home | Current Version | Previous Version | Text Only | Print | Product List | Glossary On
Versions: 1 2 3 4 5 6 7 8 9 10 11 12 13 14
000
FTUS45 KGJT 291120
TAFMTJ
TAF
KMTJ 291120Z 2912/3012 12004KT P6SM FEW120
     FM291500 04005KT P6SM FEW130 SCT250
     FM292000 31006KT P6SM FEW110 SCT250
     FM292200 36008KT P6SM FEW100 SCT200
     FM300200 17006KT P6SM SCT250
     FM300500 14009KT P6SM SCT250=

USA.gov is the U.S. government's official web portal to all federal, state and local government web resources and services.